Time,TemperatureF,DewpointF,PressureIn,WindDirection,WindDirectionDegrees,WindSpeedMPH,WindSpeedGustMPH,Humidity,HourlyPrecipIn,Conditions,Clouds,dailyrainin,SoftwareType,DateUTC
2013-10-23 00:14:00,56.0,38.0,29.84,NNW,330,1.0,0.0,51,0.00,,,0.00,,2013-10-23 04:14:00,
2013-10-23 00:24:00,56.0,38.0,29.84,NNW,340,1.0,2.0,51,0.00,,,0.00,,2013-10-23 04:24:00,
2013-10-23 01:53:00,54.0,37.0,29.81,East,100,0.0,0.0,52,0.00,,,0.00,,2013-10-23 05:53:00,
2013-10-23 02:22:00,53.0,36.0,29.81,ENE,65,0.0,0.0,53,0.00,,,0.00,,2013-10-23 06:22:00,
2013-10-23 02:42:00,53.0,36.0,29.81,ENE,65,0.0,0.0,52,0.00,,,0.00,,2013-10-23 06:42:00,
2013-10-23 02:52:00,53.0,35.0,29.81,NE,45,0.0,0.0,51,0.00,,,0.00,,2013-10-23 06:52:00,
2013-10-23 03:22:00,53.0,33.0,29.78,ENE,65,1.0,3.0,47,0.00,,,0.00,,2013-10-23 07:22:00,
2013-10-23 03:52:00,51.0,31.0,29.78,North,0,1.0,2.0,46,0.00,,,0.00,,2013-10-23 07:52:00,
2013-10-23 04:12:00,52.0,32.0,29.78,NNW,345,1.0,0.0,47,0.00,,,0.00,,2013-10-23 08:12:00,
2013-10-23 04:22:00,52.0,30.0,29.78,NW,320,1.0,2.0,43,0.00,,,0.00,,2013-10-23 08:22:00,
2013-10-23 04:53:00,52.0,32.0,29.78,NW,325,1.0,2.0,47,0.00,,,0.00,,2013-10-23 08:53:00,
2013-10-23 05:12:00,52.0,33.0,29.78,North,5,1.0,5.0,48,0.00,,,0.00,,2013-10-23 09:12:00,
2013-10-23 05:22:00,51.0,34.0,29.75,North,350,0.0,1.0,51,0.00,,,0.00,,2013-10-23 09:22:00,
2013-10-23 05:43:00,51.0,34.0,29.75,North,5,1.0,3.0,51,0.00,,,0.00,,2013-10-23 09:43:00,
2013-10-23 05:53:00,51.0,34.0,29.75,NW,325,0.0,2.0,51,0.00,,,0.00,,2013-10-23 09:53:00,
2013-10-23 06:23:00,51.0,34.0,29.75,North,0,0.0,0.0,52,0.00,,,0.00,,2013-10-23 10:23:00,
2013-10-23 06:53:00,51.0,34.0,29.75,North,5,1.0,6.0,52,0.00,,,0.00,,2013-10-23 10:53:00,
2013-10-23 07:22:00,50.0,34.0,29.75,NNE,30,1.0,5.0,53,0.00,,,0.00,,2013-10-23 11:22:00,
2013-10-23 07:42:00,50.0,33.0,29.75,NNW,345,1.0,0.0,52,0.00,,,0.00,,2013-10-23 11:42:00,
2013-10-23 07:52:00,50.0,38.0,29.75,NW,325,2.0,5.0,62,0.00,,,0.00,,2013-10-23 11:52:00,
2013-10-23 08:22:00,48.0,39.0,29.75,NW,320,0.0,5.0,72,0.01,,,0.01,,2013-10-23 12:22:00,
2013-10-23 08:42:00,48.0,41.0,29.75,North,350,1.0,2.0,78,0.04,,,0.04,,2013-10-23 12:42:00,
2013-10-23 08:52:00,47.0,42.0,29.75,NNW,340,1.0,2.0,83,0.11,,,0.11,,2013-10-23 12:52:00,
2013-10-23 09:12:00,47.0,42.0,29.75,NNW,335,2.0,3.0,84,0.11,,,0.11,,2013-10-23 13:12:00,
2013-10-23 09:22:00,47.0,43.0,29.75,NNW,335,2.0,5.0,87,0.10,,,0.11,,2013-10-23 13:22:00,
2013-10-23 09:42:00,47.0,43.0,29.75,North,350,2.0,5.0,87,0.07,,,0.11,,2013-10-23 13:42:00,
2013-10-23 09:52:00,47.0,43.0,29.72,NNW,340,5.0,6.0,87,0.00,,,0.11,,2013-10-23 13:52:00,
2013-10-23 10:22:00,47.0,44.0,29.72,NNW,340,2.0,2.0,88,0.03,,,0.14,,2013-10-23 14:22:00,
2013-10-23 10:52:00,48.0,45.0,29.69,NNE,30,0.0,2.0,89,0.10,,,0.21,,2013-10-23 14:52:00,
2013-10-23 11:22:00,48.0,45.0,29.69,NE,50,0.0,0.0,90,0.11,,,0.26,,2013-10-23 15:22:00,
2013-10-23 11:43:00,48.0,45.0,29.69,NE,50,0.0,0.0,90,0.09,,,0.26,,2013-10-23 15:43:00,
2013-10-23 11:53:00,47.0,44.0,29.66,NE,50,1.0,2.0,90,0.07,,,0.28,,2013-10-23 15:53:00,
2013-10-23 12:23:00,48.0,45.0,29.66,NE,50,0.0,0.0,91,0.06,,,0.31,,2013-10-23 16:23:00,
2013-10-23 12:53:00,48.0,45.0,29.66,NE,40,1.0,2.0,91,0.04,,,0.33,,2013-10-23 16:53:00,
2013-10-23 13:23:00,49.0,46.0,29.63,NNE,30,0.0,2.0,91,0.01,,,0.33,,2013-10-23 17:23:00,
2013-10-23 13:44:00,49.0,46.0,29.63,NE,35,0.0,0.0,91,0.01,,,0.33,,2013-10-23 17:44:00,
2013-10-23 13:52:00,51.0,48.0,29.63,WNW,295,0.0,0.0,91,0.00,,,0.33,,2013-10-23 17:52:00,
2013-10-23 14:12:00,51.0,48.0,29.60,WNW,295,0.0,0.0,91,0.00,,,0.33,,2013-10-23 18:12:00,
2013-10-23 14:22:00,50.0,47.0,29.63,North,0,0.0,0.0,89,0.00,,,0.33,,2013-10-23 18:22:00,
2013-10-23 14:42:00,49.0,46.0,29.63,NNW,330,0.0,3.0,90,0.00,,,0.33,,2013-10-23 18:42:00,
2013-10-23 14:52:00,49.0,46.0,29.63,NW,305,1.0,3.0,91,0.00,,,0.33,,2013-10-23 18:52:00,
2013-10-23 15:12:00,49.0,47.0,29.63,WNW,300,1.0,3.0,92,0.00,,,0.33,,2013-10-23 19:12:00,
2013-10-23 15:22:00,49.0,47.0,29.63,NW,305,1.0,5.0,92,0.00,,,0.33,,2013-10-23 19:22:00,
2013-10-23 15:42:00,49.0,47.0,29.63,NNW,340,2.0,5.0,92,0.00,,,0.33,,2013-10-23 19:42:00,
2013-10-23 15:53:00,50.0,47.0,29.63,WNW,295,3.0,7.0,90,0.00,,,0.33,,2013-10-23 19:53:00,
2013-10-23 16:11:00,51.0,48.0,29.63,NW,315,3.0,5.0,88,0.00,,,0.33,,2013-10-23 20:11:00,
2013-10-23 16:22:00,51.0,47.0,29.63,WNW,285,2.0,5.0,86,0.00,,,0.33,,2013-10-23 20:22:00,
2013-10-23 16:52:00,52.0,45.0,29.63,NW,310,3.0,5.0,78,0.00,,,0.33,,2013-10-23 20:52:00,
2013-10-23 17:22:00,52.0,45.0,29.66,WNW,290,3.0,5.0,78,0.00,,,0.33,,2013-10-23 21:22:00,
2013-10-23 17:43:00,51.0,44.0,29.66,NNW,330,2.0,2.0,78,0.00,,,0.33,,2013-10-23 21:43:00,
2013-10-23 17:54:00,52.0,46.0,29.66,SW,225,0.0,0.0,79,0.00,,,0.33,,2013-10-23 21:54:00,
2013-10-23 18:13:00,52.0,46.0,29.66,SW,225,1.0,5.0,79,0.00,,,0.33,,2013-10-23 22:13:00,
2013-10-23 18:24:00,52.0,45.0,29.69,WNW,285,2.0,8.0,78,0.00,,,0.33,,2013-10-23 22:24:00,
2013-10-23 18:54:00,52.0,41.0,29.69,NW,305,5.0,6.0,66,0.00,,,0.33,,2013-10-23 22:54:00,
2013-10-23 19:23:00,52.0,39.0,29.72,NW,315,7.0,8.0,61,0.00,,,0.33,,2013-10-23 23:23:00,
2013-10-23 20:52:00,51.0,34.0,29.75,NW,325,8.0,10.0,52,0.00,,,0.33,,2013-10-24 00:52:00,
2013-10-23 21:11:00,51.0,34.0,29.75,NW,320,8.0,10.0,51,0.00,,,0.33,,2013-10-24 01:11:00,
2013-10-23 21:22:00,51.0,34.0,29.78,NNW,330,7.0,8.0,53,0.00,,,0.33,,2013-10-24 01:22:00,
2013-10-23 21:42:00,50.0,34.0,29.78,NNW,330,7.0,8.0,53,0.00,,,0.33,,2013-10-24 01:42:00,
2013-10-23 21:52:00,50.0,34.0,29.78,NNW,330,8.0,12.0,53,0.00,,,0.33,,2013-10-24 01:52:00,
2013-10-23 22:12:00,50.0,34.0,29.78,NNW,330,8.0,9.0,54,0.00,,,0.33,,2013-10-24 02:12:00,
2013-10-23 22:22:00,50.0,36.0,29.81,NW,305,7.0,9.0,58,0.00,,,0.33,,2013-10-24 02:22:00,
2013-10-23 23:22:00,49.0,36.0,29.81,WNW,300,7.0,9.0,61,0.00,,,0.33,,2013-10-24 03:22:00,
2013-10-23 23:55:00,49.0,35.0,29.84,NW,305,6.0,9.0,59,0.00,,,0.33,,2013-10-24 03:55:00,